sensor_id;sensor_type;location;lat;lon;timestamp;P1;durP1;ratioP1;P2;durP2;ratioP2
65896;SDS011;52677;50.898;10.854;2022-09-20T00:01:39;4.55;;;1.63;;
65896;SDS011;52677;50.898;10.854;2022-09-20T00:03:40;3.83;;;1.50;;
65896;SDS011;52677;50.898;10.854;2022-09-20T00:05:45;2.45;;;1.35;;
65896;SDS011;52677;50.898;10.854;2022-09-20T00:07:47;4.00;;;1.50;;
65896;SDS011;52677;50.898;10.854;2022-09-20T00:09:47;2.03;;;1.30;;
65896;SDS011;52677;50.898;10.854;2022-09-20T00:11:47;3.72;;;1.75;;
65896;SDS011;52677;50.898;10.854;2022-09-20T00:13:48;3.97;;;1.50;;
65896;SDS011;52677;50.898;10.854;2022-09-20T00:15:50;3.85;;;1.85;;
65896;SDS011;52677;50.898;10.854;2022-09-20T00:17:50;5.30;;;1.83;;
65896;SDS011;52677;50.898;10.854;2022-09-20T00:19:51;3.85;;;1.65;;
65896;SDS011;52677;50.898;10.854;2022-09-20T00:21:51;3.72;;;1.60;;
65896;SDS011;52677;50.898;10.854;2022-09-20T00:23:52;5.72;;;2.00;;
65896;SDS011;52677;50.898;10.854;2022-09-20T00:25:53;2.90;;;1.38;;
65896;SDS011;52677;50.898;10.854;2022-09-20T00:27:54;4.25;;;1.48;;
65896;SDS011;52677;50.898;10.854;2022-09-20T00:29:55;3.67;;;1.50;;
65896;SDS011;52677;50.898;10.854;2022-09-20T00:31:55;4.15;;;1.58;;
65896;SDS011;52677;50.898;10.854;2022-09-20T00:33:56;3.08;;;1.45;;
65896;SDS011;52677;50.898;10.854;2022-09-20T00:36:16;2.60;;;1.45;;
65896;SDS011;52677;50.898;10.854;2022-09-20T00:38:16;3.13;;;1.38;;
65896;SDS011;52677;50.898;10.854;2022-09-20T00:40:18;4.00;;;1.50;;
65896;SDS011;52677;50.898;10.854;2022-09-20T00:42:25;6.07;;;1.65;;
65896;SDS011;52677;50.898;10.854;2022-09-20T00:46:54;6.60;;;2.13;;
65896;SDS011;52677;50.898;10.854;2022-09-20T00:48:57;5.10;;;1.33;;
65896;SDS011;52677;50.898;10.854;2022-09-20T00:51:07;4.30;;;1.80;;
65896;SDS011;52677;50.898;10.854;2022-09-20T00:53:15;4.68;;;1.80;;
65896;SDS011;52677;50.898;10.854;2022-09-20T00:55:19;2.75;;;1.48;;
65896;SDS011;52677;50.898;10.854;2022-09-20T00:57:20;3.78;;;2.00;;
65896;SDS011;52677;50.898;10.854;2022-09-20T00:59:21;3.47;;;1.58;;
65896;SDS011;52677;50.898;10.854;2022-09-20T01:01:29;4.30;;;1.95;;
65896;SDS011;52677;50.898;10.854;2022-09-20T01:03:30;3.95;;;2.00;;
65896;SDS011;52677;50.898;10.854;2022-09-20T01:05:35;5.25;;;1.63;;
65896;SDS011;52677;50.898;10.854;2022-09-20T01:07:37;4.28;;;1.90;;
65896;SDS011;52677;50.898;10.854;2022-09-20T01:09:39;5.72;;;2.40;;
65896;SDS011;52677;50.898;10.854;2022-09-20T01:11:40;5.50;;;1.88;;
65896;SDS011;52677;50.898;10.854;2022-09-20T01:13:41;6.72;;;1.70;;
65896;SDS011;52677;50.898;10.854;2022-09-20T01:15:41;3.65;;;1.88;;
65896;SDS011;52677;50.898;10.854;2022-09-20T01:17:47;5.57;;;2.40;;
65896;SDS011;52677;50.898;10.854;2022-09-20T01:22:10;5.38;;;2.03;;
65896;SDS011;52677;50.898;10.854;2022-09-20T01:24:33;6.35;;;2.35;;
65896;SDS011;52677;50.898;10.854;2022-09-20T01:29:23;4.25;;;1.63;;
65896;SDS011;52677;50.898;10.854;2022-09-20T01:31:24;6.43;;;2.30;;
65896;SDS011;52677;50.898;10.854;2022-09-20T01:35:43;9.82;;;2.20;;
65896;SDS011;52677;50.898;10.854;2022-09-20T01:37:49;6.65;;;2.33;;
65896;SDS011;52677;50.898;10.854;2022-09-20T01:42:42;4.88;;;2.30;;
65896;SDS011;52677;50.898;10.854;2022-09-20T02:02:37;4.43;;;2.05;;
65896;SDS011;52677;50.898;10.854;2022-09-20T02:12:11;6.50;;;2.38;;
65896;SDS011;52677;50.898;10.854;2022-09-20T02:14:33;7.55;;;2.60;;
65896;SDS011;52677;50.898;10.854;2022-09-20T02:26:02;12.63;;;2.60;;
65896;SDS011;52677;50.898;10.854;2022-09-20T02:30:58;7.18;;;2.72;;
65896;SDS011;52677;50.898;10.854;2022-09-20T02:36:00;8.02;;;2.65;;
65896;SDS011;52677;50.898;10.854;2022-09-20T02:38:14;5.25;;;2.50;;
65896;SDS011;52677;50.898;10.854;2022-09-20T02:43:03;7.80;;;3.17;;
65896;SDS011;52677;50.898;10.854;2022-09-20T02:45:29;7.47;;;2.85;;
65896;SDS011;52677;50.898;10.854;2022-09-20T02:47:53;7.50;;;2.90;;
65896;SDS011;52677;50.898;10.854;2022-09-20T02:54:52;4.20;;;2.83;;
65896;SDS011;52677;50.898;10.854;2022-09-20T02:57:10;4.40;;;2.72;;
65896;SDS011;52677;50.898;10.854;2022-09-20T03:06:03;5.97;;;2.38;;
65896;SDS011;52677;50.898;10.854;2022-09-20T03:08:25;8.60;;;2.72;;
65896;SDS011;52677;50.898;10.854;2022-09-20T03:12:59;4.43;;;2.47;;
65896;SDS011;52677;50.898;10.854;2022-09-20T03:24:15;5.80;;;3.10;;
65896;SDS011;52677;50.898;10.854;2022-09-20T03:26:33;5.60;;;2.80;;
65896;SDS011;52677;50.898;10.854;2022-09-20T03:42:39;8.48;;;3.05;;
65896;SDS011;52677;50.898;10.854;2022-09-20T03:44:51;6.50;;;2.80;;
65896;SDS011;52677;50.898;10.854;2022-09-20T03:47:12;5.57;;;2.55;;
65896;SDS011;52677;50.898;10.854;2022-09-20T03:54:17;9.82;;;2.70;;
65896;SDS011;52677;50.898;10.854;2022-09-20T03:58:53;5.20;;;2.47;;
65896;SDS011;52677;50.898;10.854;2022-09-20T04:03:27;4.38;;;2.55;;
65896;SDS011;52677;50.898;10.854;2022-09-20T04:05:52;5.70;;;2.90;;
65896;SDS011;52677;50.898;10.854;2022-09-20T04:12:55;10.00;;;3.45;;
65896;SDS011;52677;50.898;10.854;2022-09-20T04:15:19;7.00;;;2.53;;
65896;SDS011;52677;50.898;10.854;2022-09-20T04:17:31;6.60;;;2.63;;
65896;SDS011;52677;50.898;10.854;2022-09-20T04:19:55;6.20;;;3.08;;
65896;SDS011;52677;50.898;10.854;2022-09-20T04:22:01;5.68;;;2.50;;
65896;SDS011;52677;50.898;10.854;2022-09-20T04:26:26;2.85;;;2.17;;
65896;SDS011;52677;50.898;10.854;2022-09-20T04:31:04;7.38;;;3.50;;
65896;SDS011;52677;50.898;10.854;2022-09-20T04:33:35;9.60;;;2.55;;
65896;SDS011;52677;50.898;10.854;2022-09-20T04:38:30;5.13;;;2.45;;
65896;SDS011;52677;50.898;10.854;2022-09-20T04:58:37;4.83;;;2.37;;
65896;SDS011;52677;50.898;10.854;2022-09-20T05:03:04;7.55;;;2.40;;
65896;SDS011;52677;50.898;10.854;2022-09-20T05:15:02;3.47;;;2.28;;
65896;SDS011;52677;50.898;10.854;2022-09-20T05:17:23;6.25;;;2.25;;
65896;SDS011;52677;50.898;10.854;2022-09-20T05:22:31;7.00;;;2.08;;
65896;SDS011;52677;50.898;10.854;2022-09-20T05:27:28;7.53;;;2.95;;
65896;SDS011;52677;50.898;10.854;2022-09-20T05:29:50;7.82;;;2.45;;
65896;SDS011;52677;50.898;10.854;2022-09-20T05:39:15;6.80;;;3.05;;
65896;SDS011;52677;50.898;10.854;2022-09-20T05:41:44;6.28;;;3.20;;
65896;SDS011;52677;50.898;10.854;2022-09-20T05:46:16;5.13;;;2.83;;
65896;SDS011;52677;50.898;10.854;2022-09-20T05:48:25;9.02;;;2.38;;
65896;SDS011;52677;50.898;10.854;2022-09-20T05:50:41;5.65;;;2.40;;
65896;SDS011;52677;50.898;10.854;2022-09-20T05:52:46;9.23;;;2.50;;
65896;SDS011;52677;50.898;10.854;2022-09-20T05:55:27;7.78;;;2.35;;
65896;SDS011;52677;50.898;10.854;2022-09-20T06:04:42;5.22;;;2.53;;
65896;SDS011;52677;50.898;10.854;2022-09-20T06:06:56;7.38;;;3.53;;
65896;SDS011;52677;50.898;10.854;2022-09-20T06:15:44;6.00;;;2.35;;
65896;SDS011;52677;50.898;10.854;2022-09-20T06:17:59;10.70;;;3.40;;
65896;SDS011;52677;50.898;10.854;2022-09-20T06:22:31;5.93;;;2.53;;
65896;SDS011;52677;50.898;10.854;2022-09-20T06:24:42;6.20;;;2.70;;
65896;SDS011;52677;50.898;10.854;2022-09-20T06:26:55;6.45;;;2.60;;
65896;SDS011;52677;50.898;10.854;2022-09-20T06:31:06;15.13;;;3.80;;
65896;SDS011;52677;50.898;10.854;2022-09-20T06:35:19;11.07;;;3.30;;
65896;SDS011;52677;50.898;10.854;2022-09-20T06:37:40;5.68;;;2.38;;
65896;SDS011;52677;50.898;10.854;2022-09-20T06:42:33;4.95;;;2.35;;
65896;SDS011;52677;50.898;10.854;2022-09-20T06:44:33;9.25;;;2.67;;
65896;SDS011;52677;50.898;10.854;2022-09-20T06:46:40;9.13;;;2.53;;
65896;SDS011;52677;50.898;10.854;2022-09-20T06:48:40;9.73;;;2.50;;
65896;SDS011;52677;50.898;10.854;2022-09-20T06:50:41;4.82;;;2.38;;
65896;SDS011;52677;50.898;10.854;2022-09-20T06:52:44;7.68;;;2.63;;
65896;SDS011;52677;50.898;10.854;2022-09-20T06:54:45;7.53;;;2.47;;
65896;SDS011;52677;50.898;10.854;2022-09-20T06:56:49;6.53;;;2.67;;
65896;SDS011;52677;50.898;10.854;2022-09-20T06:58:50;6.45;;;3.40;;
65896;SDS011;52677;50.898;10.854;2022-09-20T07:00:51;3.83;;;2.33;;
65896;SDS011;52677;50.898;10.854;2022-09-20T07:02:52;4.65;;;2.60;;
65896;SDS011;52677;50.898;10.854;2022-09-20T07:04:54;7.28;;;2.83;;
65896;SDS011;52677;50.898;10.854;2022-09-20T07:06:58;9.32;;;3.35;;
65896;SDS011;52677;50.898;10.854;2022-09-20T07:09:03;8.82;;;2.67;;
65896;SDS011;52677;50.898;10.854;2022-09-20T07:11:12;7.45;;;3.25;;
65896;SDS011;52677;50.898;10.854;2022-09-20T07:13:15;5.60;;;2.92;;
65896;SDS011;52677;50.898;10.854;2022-09-20T07:15:18;4.13;;;2.40;;
65896;SDS011;52677;50.898;10.854;2022-09-20T07:17:21;11.15;;;3.13;;
65896;SDS011;52677;50.898;10.854;2022-09-20T07:19:22;4.63;;;2.25;;
65896;SDS011;52677;50.898;10.854;2022-09-20T07:21:22;4.28;;;2.83;;
65896;SDS011;52677;50.898;10.854;2022-09-20T07:23:26;4.13;;;1.98;;
65896;SDS011;52677;50.898;10.854;2022-09-20T07:25:29;7.25;;;2.42;;
65896;SDS011;52677;50.898;10.854;2022-09-20T07:27:30;4.38;;;2.00;;
65896;SDS011;52677;50.898;10.854;2022-09-20T07:29:31;7.40;;;2.13;;
65896;SDS011;52677;50.898;10.854;2022-09-20T07:31:31;4.40;;;1.77;;
65896;SDS011;52677;50.898;10.854;2022-09-20T07:33:32;6.72;;;2.15;;
65896;SDS011;52677;50.898;10.854;2022-09-20T07:35:32;4.57;;;2.30;;
65896;SDS011;52677;50.898;10.854;2022-09-20T07:37:32;11.05;;;3.92;;
65896;SDS011;52677;50.898;10.854;2022-09-20T07:39:33;4.70;;;2.30;;
65896;SDS011;52677;50.898;10.854;2022-09-20T07:41:33;3.22;;;1.65;;
65896;SDS011;52677;50.898;10.854;2022-09-20T07:43:34;2.15;;;1.73;;
65896;SDS011;52677;50.898;10.854;2022-09-20T07:45:34;3.83;;;1.90;;
65896;SDS011;52677;50.898;10.854;2022-09-20T07:47:38;2.92;;;1.98;;
65896;SDS011;52677;50.898;10.854;2022-09-20T07:49:40;8.55;;;3.10;;
65896;SDS011;52677;50.898;10.854;2022-09-20T07:51:40;3.28;;;1.42;;
65896;SDS011;52677;50.898;10.854;2022-09-20T07:53:40;5.03;;;1.83;;
65896;SDS011;52677;50.898;10.854;2022-09-20T07:55:41;4.90;;;1.80;;
65896;SDS011;52677;50.898;10.854;2022-09-20T07:57:41;5.43;;;2.08;;
65896;SDS011;52677;50.898;10.854;2022-09-20T07:59:41;4.85;;;1.60;;
65896;SDS011;52677;50.898;10.854;2022-09-20T08:01:42;7.30;;;1.50;;
65896;SDS011;52677;50.898;10.854;2022-09-20T08:03:42;6.28;;;1.90;;
65896;SDS011;52677;50.898;10.854;2022-09-20T08:07:45;6.57;;;2.25;;
65896;SDS011;52677;50.898;10.854;2022-09-20T08:09:45;3.22;;;1.77;;
65896;SDS011;52677;50.898;10.854;2022-09-20T08:11:45;3.30;;;1.92;;
65896;SDS011;52677;50.898;10.854;2022-09-20T08:13:47;4.10;;;1.60;;
65896;SDS011;52677;50.898;10.854;2022-09-20T08:15:48;3.28;;;1.80;;
65896;SDS011;52677;50.898;10.854;2022-09-20T08:17:49;6.55;;;1.77;;
65896;SDS011;52677;50.898;10.854;2022-09-20T08:19:49;5.22;;;2.00;;
65896;SDS011;52677;50.898;10.854;2022-09-20T08:21:51;8.18;;;2.53;;
65896;SDS011;52677;50.898;10.854;2022-09-20T08:23:53;3.50;;;1.70;;
65896;SDS011;52677;50.898;10.854;2022-09-20T08:25:55;7.57;;;3.08;;
65896;SDS011;52677;50.898;10.854;2022-09-20T08:27:55;5.35;;;2.45;;
65896;SDS011;52677;50.898;10.854;2022-09-20T08:29:56;9.60;;;3.28;;
65896;SDS011;52677;50.898;10.854;2022-09-20T08:31:56;5.07;;;2.10;;
65896;SDS011;52677;50.898;10.854;2022-09-20T08:33:57;4.13;;;1.92;;
65896;SDS011;52677;50.898;10.854;2022-09-20T08:35:58;3.35;;;1.73;;
65896;SDS011;52677;50.898;10.854;2022-09-20T08:37:59;3.15;;;1.25;;
65896;SDS011;52677;50.898;10.854;2022-09-20T08:40:00;3.17;;;1.65;;
65896;SDS011;52677;50.898;10.854;2022-09-20T08:42:07;15.77;;;6.90;;
65896;SDS011;52677;50.898;10.854;2022-09-20T08:44:29;7.75;;;3.53;;
65896;SDS011;52677;50.898;10.854;2022-09-20T08:46:32;15.30;;;7.25;;
65896;SDS011;52677;50.898;10.854;2022-09-20T08:48:37;8.60;;;3.80;;
65896;SDS011;52677;50.898;10.854;2022-09-20T08:50:38;5.70;;;1.70;;
65896;SDS011;52677;50.898;10.854;2022-09-20T08:52:38;6.97;;;1.88;;
65896;SDS011;52677;50.898;10.854;2022-09-20T08:54:39;3.20;;;1.58;;
65896;SDS011;52677;50.898;10.854;2022-09-20T08:58:45;6.68;;;3.08;;
65896;SDS011;52677;50.898;10.854;2022-09-20T09:00:46;5.88;;;1.40;;
65896;SDS011;52677;50.898;10.854;2022-09-20T09:02:47;4.55;;;2.90;;
65896;SDS011;52677;50.898;10.854;2022-09-20T09:04:53;7.15;;;2.88;;
65896;SDS011;52677;50.898;10.854;2022-09-20T09:06:53;4.00;;;2.40;;
65896;SDS011;52677;50.898;10.854;2022-09-20T09:08:54;7.55;;;2.65;;
65896;SDS011;52677;50.898;10.854;2022-09-20T09:11:02;4.60;;;1.90;;
65896;SDS011;52677;50.898;10.854;2022-09-20T09:13:12;3.30;;;1.70;;
65896;SDS011;52677;50.898;10.854;2022-09-20T09:15:26;6.00;;;1.55;;
65896;SDS011;52677;50.898;10.854;2022-09-20T09:17:31;7.35;;;2.33;;
65896;SDS011;52677;50.898;10.854;2022-09-20T09:19:41;3.28;;;1.35;;
65896;SDS011;52677;50.898;10.854;2022-09-20T09:22:01;5.97;;;2.15;;
65896;SDS011;52677;50.898;10.854;2022-09-20T09:24:04;3.90;;;1.58;;
65896;SDS011;52677;50.898;10.854;2022-09-20T09:26:13;7.10;;;1.98;;
65896;SDS011;52677;50.898;10.854;2022-09-20T09:28:24;5.18;;;2.40;;
65896;SDS011;52677;50.898;10.854;2022-09-20T09:30:44;3.72;;;1.98;;
65896;SDS011;52677;50.898;10.854;2022-09-20T09:32:48;9.70;;;2.75;;
65896;SDS011;52677;50.898;10.854;2022-09-20T09:34:49;5.55;;;2.17;;
65896;SDS011;52677;50.898;10.854;2022-09-20T09:36:50;7.57;;;2.40;;
65896;SDS011;52677;50.898;10.854;2022-09-20T09:38:50;7.18;;;1.70;;
65896;SDS011;52677;50.898;10.854;2022-09-20T09:41:22;11.65;;;6.32;;
65896;SDS011;52677;50.898;10.854;2022-09-20T09:43:29;3.08;;;1.50;;
65896;SDS011;52677;50.898;10.854;2022-09-20T09:45:35;2.40;;;1.20;;
65896;SDS011;52677;50.898;10.854;2022-09-20T09:47:37;5.68;;;1.40;;
65896;SDS011;52677;50.898;10.854;2022-09-20T09:49:37;4.30;;;1.30;;
65896;SDS011;52677;50.898;10.854;2022-09-20T09:52:11;2.10;;;1.10;;
65896;SDS011;52677;50.898;10.854;2022-09-20T09:54:13;5.28;;;1.58;;
65896;SDS011;52677;50.898;10.854;2022-09-20T10:01:11;2.63;;;1.30;;
65896;SDS011;52677;50.898;10.854;2022-09-20T10:12:52;6.72;;;2.30;;
65896;SDS011;52677;50.898;10.854;2022-09-20T10:15:21;5.50;;;3.08;;
65896;SDS011;52677;50.898;10.854;2022-09-20T10:17:39;7.90;;;2.55;;
65896;SDS011;52677;50.898;10.854;2022-09-20T10:22:53;3.35;;;1.55;;
65896;SDS011;52677;50.898;10.854;2022-09-20T10:38:22;2.90;;;1.45;;
65896;SDS011;52677;50.898;10.854;2022-09-20T10:40:37;4.82;;;2.10;;
65896;SDS011;52677;50.898;10.854;2022-09-20T10:43:04;2.65;;;1.85;;
65896;SDS011;52677;50.898;10.854;2022-09-20T10:45:17;2.70;;;1.83;;
65896;SDS011;52677;50.898;10.854;2022-09-20T10:48:00;2.55;;;1.73;;
65896;SDS011;52677;50.898;10.854;2022-09-20T10:50:13;4.25;;;1.90;;
65896;SDS011;52677;50.898;10.854;2022-09-20T11:09:22;7.30;;;3.75;;
65896;SDS011;52677;50.898;10.854;2022-09-20T11:11:28;4.20;;;1.73;;
65896;SDS011;52677;50.898;10.854;2022-09-20T11:16:20;3.45;;;2.38;;
65896;SDS011;52677;50.898;10.854;2022-09-20T11:18:38;3.88;;;2.35;;
65896;SDS011;52677;50.898;10.854;2022-09-20T11:20:46;2.70;;;1.75;;
65896;SDS011;52677;50.898;10.854;2022-09-20T11:25:11;4.30;;;1.92;;
65896;SDS011;52677;50.898;10.854;2022-09-20T11:27:31;2.13;;;1.52;;
65896;SDS011;52677;50.898;10.854;2022-09-20T11:29:39;2.90;;;1.55;;
65896;SDS011;52677;50.898;10.854;2022-09-20T11:31:45;2.60;;;1.52;;
65896;SDS011;52677;50.898;10.854;2022-09-20T11:36:21;3.70;;;1.60;;
65896;SDS011;52677;50.898;10.854;2022-09-20T11:39:12;1.70;;;1.00;;
65896;SDS011;52677;50.898;10.854;2022-09-20T11:41:19;1.00;;;0.90;;
65896;SDS011;52677;50.898;10.854;2022-09-20T11:43:25;1.77;;;1.02;;
65896;SDS011;52677;50.898;10.854;2022-09-20T11:45:30;1.20;;;0.82;;
65896;SDS011;52677;50.898;10.854;2022-09-20T11:47:46;1.98;;;1.00;;
65896;SDS011;52677;50.898;10.854;2022-09-20T11:56:37;2.42;;;1.30;;
65896;SDS011;52677;50.898;10.854;2022-09-20T11:59:20;4.20;;;1.10;;
65896;SDS011;52677;50.898;10.854;2022-09-20T12:01:06;2.03;;;1.00;;
65896;SDS011;52677;50.898;10.854;2022-09-20T12:03:23;2.10;;;1.00;;
65896;SDS011;52677;50.898;10.854;2022-09-20T12:05:33;2.38;;;1.10;;
65896;SDS011;52677;50.898;10.854;2022-09-20T12:07:38;4.45;;;1.00;;
65896;SDS011;52677;50.898;10.854;2022-09-20T12:09:41;1.92;;;0.80;;
65896;SDS011;52677;50.898;10.854;2022-09-20T12:11:44;1.05;;;0.73;;
65896;SDS011;52677;50.898;10.854;2022-09-20T12:13:51;1.50;;;0.90;;
65896;SDS011;52677;50.898;10.854;2022-09-20T12:18:07;1.00;;;0.90;;
65896;SDS011;52677;50.898;10.854;2022-09-20T12:22:43;2.72;;;1.20;;
65896;SDS011;52677;50.898;10.854;2022-09-20T12:24:44;1.60;;;1.00;;
65896;SDS011;52677;50.898;10.854;2022-09-20T12:26:44;1.42;;;1.02;;
65896;SDS011;52677;50.898;10.854;2022-09-20T12:28:46;1.38;;;1.00;;
65896;SDS011;52677;50.898;10.854;2022-09-20T12:31:09;2.95;;;1.45;;
65896;SDS011;52677;50.898;10.854;2022-09-20T12:33:18;3.40;;;1.20;;
65896;SDS011;52677;50.898;10.854;2022-09-20T12:36:11;2.30;;;1.05;;
65896;SDS011;52677;50.898;10.854;2022-09-20T12:37:51;1.30;;;0.90;;
65896;SDS011;52677;50.898;10.854;2022-09-20T12:39:52;1.52;;;0.95;;
65896;SDS011;52677;50.898;10.854;2022-09-20T12:44:56;1.92;;;1.02;;
65896;SDS011;52677;50.898;10.854;2022-09-20T12:46:43;3.35;;;1.80;;
65896;SDS011;52677;50.898;10.854;2022-09-20T12:49:08;3.10;;;1.55;;
65896;SDS011;52677;50.898;10.854;2022-09-20T12:51:39;3.17;;;1.05;;
65896;SDS011;52677;50.898;10.854;2022-09-20T12:53:59;0.70;;;0.70;;
65896;SDS011;52677;50.898;10.854;2022-09-20T12:56:06;1.08;;;0.60;;
65896;SDS011;52677;50.898;10.854;2022-09-20T13:00:26;1.98;;;1.02;;
65896;SDS011;52677;50.898;10.854;2022-09-20T13:02:53;1.27;;;1.00;;
65896;SDS011;52677;50.898;10.854;2022-09-20T13:04:57;3.00;;;0.90;;
65896;SDS011;52677;50.898;10.854;2022-09-20T13:07:24;1.70;;;1.30;;
65896;SDS011;52677;50.898;10.854;2022-09-20T13:09:46;2.17;;;1.00;;
65896;SDS011;52677;50.898;10.854;2022-09-20T13:11:50;1.20;;;1.00;;
65896;SDS011;52677;50.898;10.854;2022-09-20T13:15:54;5.15;;;1.95;;
65896;SDS011;52677;50.898;10.854;2022-09-20T13:17:56;1.27;;;1.05;;
65896;SDS011;52677;50.898;10.854;2022-09-20T13:20:00;3.47;;;1.30;;
65896;SDS011;52677;50.898;10.854;2022-09-20T13:24:09;2.13;;;0.60;;
65896;SDS011;52677;50.898;10.854;2022-09-20T13:26:18;0.50;;;0.50;;
65896;SDS011;52677;50.898;10.854;2022-09-20T13:28:41;2.28;;;1.25;;
65896;SDS011;52677;50.898;10.854;2022-09-20T13:30:48;0.98;;;0.50;;
65896;SDS011;52677;50.898;10.854;2022-09-20T13:32:48;0.50;;;0.50;;
65896;SDS011;52677;50.898;10.854;2022-09-20T13:35:06;0.60;;;0.50;;
65896;SDS011;52677;50.898;10.854;2022-09-20T13:37:16;1.05;;;0.70;;
65896;SDS011;52677;50.898;10.854;2022-09-20T13:39:23;2.15;;;0.73;;
65896;SDS011;52677;50.898;10.854;2022-09-20T13:41:36;1.38;;;0.80;;
65896;SDS011;52677;50.898;10.854;2022-09-20T13:45:42;0.60;;;0.50;;
65896;SDS011;52677;50.898;10.854;2022-09-20T13:47:43;2.95;;;1.40;;
65896;SDS011;52677;50.898;10.854;2022-09-20T13:49:47;0.57;;;0.57;;
65896;SDS011;52677;50.898;10.854;2022-09-20T13:51:48;0.77;;;0.60;;
65896;SDS011;52677;50.898;10.854;2022-09-20T13:53:49;1.35;;;0.77;;
65896;SDS011;52677;50.898;10.854;2022-09-20T13:55:50;1.02;;;0.88;;
65896;SDS011;52677;50.898;10.854;2022-09-20T13:57:50;1.10;;;1.00;;
65896;SDS011;52677;50.898;10.854;2022-09-20T13:59:52;2.88;;;1.40;;
65896;SDS011;52677;50.898;10.854;2022-09-20T14:01:56;2.17;;;0.98;;
65896;SDS011;52677;50.898;10.854;2022-09-20T14:04:02;3.05;;;1.63;;
65896;SDS011;52677;50.898;10.854;2022-09-20T14:06:09;1.77;;;0.98;;
65896;SDS011;52677;50.898;10.854;2022-09-20T14:08:26;1.08;;;0.90;;
65896;SDS011;52677;50.898;10.854;2022-09-20T14:10:33;2.33;;;0.80;;
65896;SDS011;52677;50.898;10.854;2022-09-20T14:12:36;3.53;;;1.42;;
65896;SDS011;52677;50.898;10.854;2022-09-20T14:14:37;3.53;;;1.17;;
65896;SDS011;52677;50.898;10.854;2022-09-20T14:16:40;2.85;;;1.20;;
65896;SDS011;52677;50.898;10.854;2022-09-20T14:18:45;1.65;;;1.10;;
65896;SDS011;52677;50.898;10.854;2022-09-20T14:20:47;1.00;;;0.88;;
65896;SDS011;52677;50.898;10.854;2022-09-20T14:22:48;0.85;;;0.77;;
65896;SDS011;52677;50.898;10.854;2022-09-20T14:27:15;3.15;;;1.17;;
65896;SDS011;52677;50.898;10.854;2022-09-20T14:29:27;1.95;;;0.80;;
65896;SDS011;52677;50.898;10.854;2022-09-20T14:31:30;6.43;;;1.02;;
65896;SDS011;52677;50.898;10.854;2022-09-20T14:33:34;1.17;;;0.70;;
65896;SDS011;52677;50.898;10.854;2022-09-20T14:35:45;3.00;;;0.95;;
65896;SDS011;52677;50.898;10.854;2022-09-20T14:37:51;1.73;;;1.17;;
65896;SDS011;52677;50.898;10.854;2022-09-20T14:40:02;1.95;;;0.80;;
65896;SDS011;52677;50.898;10.854;2022-09-20T14:42:19;2.65;;;1.85;;
65896;SDS011;52677;50.898;10.854;2022-09-20T14:44:29;0.80;;;0.80;;
65896;SDS011;52677;50.898;10.854;2022-09-20T14:46:34;0.95;;;0.70;;
65896;SDS011;52677;50.898;10.854;2022-09-20T14:48:38;1.20;;;0.68;;
65896;SDS011;52677;50.898;10.854;2022-09-20T14:50:41;2.00;;;1.60;;
65896;SDS011;52677;50.898;10.854;2022-09-20T14:52:42;3.83;;;1.25;;
65896;SDS011;52677;50.898;10.854;2022-09-20T14:54:55;1.80;;;1.00;;
65896;SDS011;52677;50.898;10.854;2022-09-20T14:56:58;1.30;;;0.77;;
65896;SDS011;52677;50.898;10.854;2022-09-20T15:01:20;1.90;;;1.10;;
65896;SDS011;52677;50.898;10.854;2022-09-20T15:03:24;1.63;;;1.30;;
65896;SDS011;52677;50.898;10.854;2022-09-20T15:05:27;2.03;;;1.13;;
65896;SDS011;52677;50.898;10.854;2022-09-20T15:07:29;1.15;;;0.73;;
65896;SDS011;52677;50.898;10.854;2022-09-20T15:09:29;3.25;;;1.27;;
65896;SDS011;52677;50.898;10.854;2022-09-20T15:11:29;2.38;;;1.40;;
65896;SDS011;52677;50.898;10.854;2022-09-20T15:13:30;2.08;;;1.10;;
65896;SDS011;52677;50.898;10.854;2022-09-20T15:15:30;2.60;;;1.27;;
65896;SDS011;52677;50.898;10.854;2022-09-20T15:17:31;2.17;;;1.30;;
65896;SDS011;52677;50.898;10.854;2022-09-20T15:19:31;2.28;;;1.20;;
65896;SDS011;52677;50.898;10.854;2022-09-20T15:21:33;4.85;;;1.33;;
65896;SDS011;52677;50.898;10.854;2022-09-20T15:23:33;2.58;;;1.23;;
65896;SDS011;52677;50.898;10.854;2022-09-20T15:25:34;4.28;;;1.65;;
65896;SDS011;52677;50.898;10.854;2022-09-20T15:27:35;1.95;;;1.63;;
65896;SDS011;52677;50.898;10.854;2022-09-20T15:29:35;2.60;;;1.85;;
65896;SDS011;52677;50.898;10.854;2022-09-20T15:31:35;2.80;;;2.00;;
65896;SDS011;52677;50.898;10.854;2022-09-20T15:33:35;4.55;;;1.77;;
65896;SDS011;52677;50.898;10.854;2022-09-20T15:35:36;2.50;;;1.38;;
65896;SDS011;52677;50.898;10.854;2022-09-20T15:37:40;1.20;;;0.90;;
65896;SDS011;52677;50.898;10.854;2022-09-20T15:39:42;2.67;;;1.17;;
65896;SDS011;52677;50.898;10.854;2022-09-20T15:41:42;2.30;;;1.00;;
65896;SDS011;52677;50.898;10.854;2022-09-20T15:43:44;2.10;;;1.02;;
65896;SDS011;52677;50.898;10.854;2022-09-20T15:45:46;1.88;;;1.05;;
65896;SDS011;52677;50.898;10.854;2022-09-20T15:47:49;1.52;;;1.00;;
65896;SDS011;52677;50.898;10.854;2022-09-20T15:49:49;3.13;;;1.23;;
65896;SDS011;52677;50.898;10.854;2022-09-20T15:51:49;1.77;;;1.00;;
65896;SDS011;52677;50.898;10.854;2022-09-20T15:53:58;2.33;;;1.38;;
65896;SDS011;52677;50.898;10.854;2022-09-20T15:56:00;2.30;;;1.58;;
65896;SDS011;52677;50.898;10.854;2022-09-20T15:58:02;2.03;;;1.35;;
65896;SDS011;52677;50.898;10.854;2022-09-20T16:00:03;2.58;;;1.00;;
65896;SDS011;52677;50.898;10.854;2022-09-20T16:02:03;1.10;;;0.90;;
65896;SDS011;52677;50.898;10.854;2022-09-20T16:06:18;2.58;;;1.40;;
65896;SDS011;52677;50.898;10.854;2022-09-20T16:08:18;2.28;;;1.60;;
65896;SDS011;52677;50.898;10.854;2022-09-20T16:10:18;4.72;;;1.70;;
65896;SDS011;52677;50.898;10.854;2022-09-20T16:12:19;2.78;;;1.70;;
65896;SDS011;52677;50.898;10.854;2022-09-20T16:14:23;2.55;;;2.00;;
65896;SDS011;52677;50.898;10.854;2022-09-20T16:16:24;2.60;;;2.00;;
65896;SDS011;52677;50.898;10.854;2022-09-20T16:18:26;3.53;;;2.28;;
65896;SDS011;52677;50.898;10.854;2022-09-20T16:20:46;5.40;;;2.72;;
65896;SDS011;52677;50.898;10.854;2022-09-20T16:22:46;4.00;;;1.73;;
65896;SDS011;52677;50.898;10.854;2022-09-20T16:24:47;3.05;;;1.70;;
65896;SDS011;52677;50.898;10.854;2022-09-20T16:26:47;2.10;;;1.30;;
65896;SDS011;52677;50.898;10.854;2022-09-20T16:28:47;1.67;;;1.42;;
65896;SDS011;52677;50.898;10.854;2022-09-20T16:30:57;2.65;;;1.45;;
65896;SDS011;52677;50.898;10.854;2022-09-20T16:32:58;3.00;;;1.50;;
65896;SDS011;52677;50.898;10.854;2022-09-20T16:35:04;3.42;;;1.70;;
65896;SDS011;52677;50.898;10.854;2022-09-20T16:37:09;2.33;;;1.90;;
65896;SDS011;52677;50.898;10.854;2022-09-20T16:39:14;4.03;;;2.13;;
65896;SDS011;52677;50.898;10.854;2022-09-20T16:41:15;3.85;;;3.17;;
65896;SDS011;52677;50.898;10.854;2022-09-20T16:43:16;3.00;;;2.10;;
65896;SDS011;52677;50.898;10.854;2022-09-20T16:45:22;2.78;;;1.75;;
65896;SDS011;52677;50.898;10.854;2022-09-20T16:47:22;3.05;;;1.98;;
65896;SDS011;52677;50.898;10.854;2022-09-20T16:51:30;3.83;;;1.70;;
65896;SDS011;52677;50.898;10.854;2022-09-20T16:53:32;4.53;;;3.22;;
65896;SDS011;52677;50.898;10.854;2022-09-20T16:55:32;3.67;;;2.47;;
65896;SDS011;52677;50.898;10.854;2022-09-20T16:57:33;3.35;;;2.20;;
65896;SDS011;52677;50.898;10.854;2022-09-20T17:01:36;4.63;;;2.67;;
65896;SDS011;52677;50.898;10.854;2022-09-20T17:03:37;5.90;;;2.40;;
65896;SDS011;52677;50.898;10.854;2022-09-20T17:05:39;2.88;;;1.98;;
65896;SDS011;52677;50.898;10.854;2022-09-20T17:07:41;4.88;;;2.97;;